Time;durP1;ratioP1;P1;durP2;ratioP2;P2;SDS_P1;SDS_P2;PMS_P1;PMS_P2;Temp;Humidity;BMP_temperature;BMP_pressure;BME280_temperature;BME280_humidity;BME280_pressure;Samples;Min_cycle;Max_cycle;Signal;HPM_P1;HPM_P2
2022/11/12 00:00:58;;;;;;;9.77;8.87;;;9.60;99.90;;;;;;5145148;27;20260;-72
2022/11/12 00:03:25;;;;;;;7.10;6.17;;;9.50;99.90;;;;;;5111066;27;20293;-72
2022/11/12 00:05:52;;;;;;;4.27;3.87;;;9.50;99.90;;;;;;5129863;27;20333;-73
2022/11/12 00:08:19;;;;;;;3.80;3.50;;;9.50;99.90;;;;;;5125302;27;20205;-73
2022/11/12 00:10:47;;;;;;;6.30;5.70;;;9.40;99.90;;;;;;5130319;27;20668;-73
2022/11/12 00:13:14;;;;;;;5.80;5.20;;;9.40;99.90;;;;;;5109345;28;20285;-73
2022/11/12 00:15:43;;;;;;;5.63;4.37;;;9.30;99.90;;;;;;5108829;28;20230;-73
2022/11/12 00:18:10;;;;;;;4.80;3.43;;;9.30;99.90;;;;;;5109421;28;20322;-71
2022/11/12 00:20:36;;;;;;;4.17;3.83;;;9.30;99.90;;;;;;5109623;28;20263;-71
2022/11/12 00:23:04;;;;;;;11.07;9.93;;;9.30;99.90;;;;;;5109001;28;20311;-71
2022/11/12 00:25:31;;;;;;;5.17;4.57;;;9.30;99.90;;;;;;5109457;28;20210;-71
2022/11/12 00:28:02;;;;;;;4.50;3.90;;;9.30;99.90;;;;;;5146445;27;20236;-71
2022/11/12 00:30:29;;;;;;;4.23;3.73;;;9.30;99.90;;;;;;5150205;27;20200;-73
2022/11/12 00:32:57;;;;;;;4.03;3.60;;;9.30;99.90;;;;;;5136414;27;20245;-73
2022/11/12 00:35:24;;;;;;;3.70;3.40;;;9.20;99.90;;;;;;5129403;27;20331;-73
2022/11/12 00:37:55;;;;;;;4.90;3.00;;;9.20;99.90;;;;;;5129242;27;20320;-70
2022/11/12 00:40:22;;;;;;;3.50;3.07;;;9.20;99.90;;;;;;5129468;27;20200;-71
2022/11/12 00:42:51;;;;;;;3.80;2.90;;;9.10;99.90;;;;;;5129823;27;20300;-73
2022/11/12 00:45:17;;;;;;;3.23;2.93;;;9.00;99.90;;;;;;5129444;27;20206;-71
2022/11/12 00:47:44;;;;;;;3.50;3.20;;;9.00;99.90;;;;;;5129598;27;21084;-71
2022/11/12 00:50:14;;;;;;;2.90;2.70;;;9.00;99.90;;;;;;5129442;27;20873;-70
2022/11/12 00:52:41;;;;;;;3.77;3.00;;;9.00;99.90;;;;;;5129115;27;20667;-70
2022/11/12 00:55:09;;;;;;;3.60;3.17;;;8.90;99.90;;;;;;5128910;27;20675;-70
2022/11/12 00:57:35;;;;;;;3.43;3.13;;;8.90;99.90;;;;;;5144602;27;20236;-70
2022/11/12 01:00:04;;;;;;;4.83;3.10;;;8.90;99.90;;;;;;5117299;27;20312;-72
2022/11/12 01:02:31;;;;;;;6.57;3.30;;;8.90;99.90;;;;;;5129034;27;20284;-72
2022/11/12 01:04:57;;;;;;;3.33;2.97;;;8.90;99.90;;;;;;5128839;27;20214;-70
2022/11/12 01:07:27;;;;;;;2.90;2.70;;;8.80;99.90;;;;;;5125740;27;20815;-70
2022/11/12 01:09:54;;;;;;;3.37;3.10;;;8.90;99.90;;;;;;5107897;28;20302;-70
2022/11/12 01:12:20;;;;;;;3.40;2.90;;;8.90;99.90;;;;;;5107960;28;20213;-70
2022/11/12 01:14:47;;;;;;;3.53;2.87;;;8.80;99.90;;;;;;5107646;28;20715;-70
2022/11/12 01:17:14;;;;;;;3.33;2.87;;;8.90;99.90;;;;;;5108169;28;20325;-70
2022/11/12 01:19:41;;;;;;;2.43;2.23;;;8.90;99.90;;;;;;5108078;28;20241;-70
2022/11/12 01:22:08;;;;;;;3.40;3.10;;;8.90;99.90;;;;;;5120650;27;20665;-70
2022/11/12 01:24:36;;;;;;;3.67;2.90;;;8.90;99.90;;;;;;5128240;27;20292;-70
2022/11/12 01:27:03;;;;;;;4.73;3.20;;;9.00;99.90;;;;;;5117103;27;20353;-70
2022/11/12 01:29:30;;;;;;;4.33;3.13;;;9.00;99.90;;;;;;5107716;28;20244;-70
2022/11/12 01:31:57;;;;;;;2.63;2.43;;;8.90;99.90;;;;;;5108038;28;20225;-70
2022/11/12 01:34:25;;;;;;;3.60;3.30;;;8.90;99.90;;;;;;5108149;28;20242;-71
2022/11/12 01:36:52;;;;;;;3.43;2.90;;;8.90;99.90;;;;;;5107739;28;20624;-71
2022/11/12 01:39:19;;;;;;;3.10;2.80;;;8.80;99.90;;;;;;5108081;28;20292;-70
2022/11/12 01:41:47;;;;;;;4.03;2.90;;;8.80;99.90;;;;;;5107590;28;20676;-70
2022/11/12 01:44:16;;;;;;;3.93;2.47;;;8.80;99.90;;;;;;5107631;28;20313;-70
2022/11/12 01:46:56;;;;;;;3.70;2.70;;;8.80;99.90;;;;;;5107659;28;20293;-70
2022/11/12 01:49:29;;;;;;;3.23;2.30;;;8.80;99.90;;;;;;5107649;28;20196;-70
2022/11/12 01:51:58;;;;;;;4.03;2.60;;;8.80;99.90;;;;;;5107350;28;20199;-70
2022/11/12 01:54:27;;;;;;;2.60;2.40;;;8.80;99.90;;;;;;5107611;28;20328;-70
2022/11/12 01:56:57;;;;;;;3.40;2.30;;;8.80;99.90;;;;;;5108201;27;20320;-70
2022/11/12 01:59:30;;;;;;;3.53;2.27;;;8.80;99.90;;;;;;5107233;28;20639;-69
2022/11/12 02:01:57;;;;;;;3.20;2.20;;;8.70;99.90;;;;;;5107532;28;20280;-69
2022/11/12 02:04:26;;;;;;;3.47;2.30;;;8.70;99.90;;;;;;5107821;28;20244;-70
2022/11/12 02:06:55;;;;;;;2.37;2.17;;;8.60;99.90;;;;;;5115818;28;20478;-69
2022/11/12 02:09:22;;;;;;;2.63;2.30;;;8.60;99.90;;;;;;5127465;27;20288;-69
2022/11/12 02:11:49;;;;;;;2.23;2.03;;;8.60;99.90;;;;;;5109324;28;20942;-69
2022/11/12 02:14:16;;;;;;;2.60;2.40;;;8.60;99.90;;;;;;5120815;27;20628;-69
2022/11/12 02:16:45;;;;;;;3.40;2.60;;;8.60;99.90;;;;;;5107322;28;20232;-69
2022/11/12 02:19:15;;;;;;;2.57;2.30;;;8.60;99.90;;;;;;5107098;28;20202;-69
2022/11/12 02:21:44;;;;;;;3.10;2.60;;;8.50;99.90;;;;;;5116392;28;20229;-69
2022/11/12 02:24:33;;;;;;;3.67;2.40;;;8.50;99.90;;;;;;5127820;27;20201;-69
2022/11/12 02:27:00;;;;;;;3.47;2.40;;;8.50;99.90;;;;;;5117305;27;20289;-69
2022/11/12 02:29:27;;;;;;;2.30;2.20;;;8.40;99.90;;;;;;5107435;28;20405;-69
2022/11/12 02:31:54;;;;;;;4.80;2.50;;;8.40;99.90;;;;;;5107406;28;20321;-72
2022/11/12 02:34:21;;;;;;;2.23;2.07;;;8.40;99.90;;;;;;5125098;28;20294;-72
2022/11/12 02:36:49;;;;;;;3.10;2.27;;;8.40;99.90;;;;;;5128051;27;20288;-71
2022/11/12 02:39:16;;;;;;;4.37;2.20;;;8.40;99.90;;;;;;5132031;27;20201;-72
2022/11/12 02:41:43;;;;;;;2.50;2.30;;;8.40;99.90;;;;;;5132043;27;20242;-71
2022/11/12 02:44:10;;;;;;;3.13;2.40;;;8.30;99.90;;;;;;5131740;27;20320;-71
2022/11/12 02:46:37;;;;;;;2.70;2.50;;;8.40;99.90;;;;;;5131727;27;20227;-71
2022/11/12 02:49:04;;;;;;;3.00;2.40;;;8.30;99.90;;;;;;5131854;27;20244;-71
2022/11/12 02:51:30;;;;;;;2.37;2.20;;;8.30;99.90;;;;;;5132026;27;20280;-72
2022/11/12 02:53:59;;;;;;;4.23;1.93;;;8.30;99.90;;;;;;5115642;27;20321;-72
2022/11/12 02:56:26;;;;;;;2.80;2.50;;;8.30;99.90;;;;;;5116725;27;20736;-71
2022/11/12 02:58:52;;;;;;;2.97;2.13;;;8.30;99.90;;;;;;5130862;27;20233;-73
2022/11/12 03:01:19;;;;;;;4.77;2.33;;;8.30;99.90;;;;;;5130369;27;20343;-72
2022/11/12 03:03:46;;;;;;;2.27;1.90;;;8.20;99.90;;;;;;5131335;27;20239;-72
2022/11/12 03:06:13;;;;;;;2.33;1.93;;;8.20;99.90;;;;;;5131376;27;20237;-72
2022/11/12 03:08:40;;;;;;;3.83;2.10;;;8.20;99.90;;;;;;5131036;27;20245;-72
2022/11/12 03:11:10;;;;;;;2.40;2.10;;;8.20;99.90;;;;;;5131097;27;20220;-72
2022/11/12 03:13:38;;;;;;;2.20;2.00;;;8.20;99.90;;;;;;5131118;27;20268;-72
2022/11/12 03:16:05;;;;;;;2.77;2.00;;;8.10;99.90;;;;;;5130685;27;20292;-72
2022/11/12 03:18:33;;;;;;;2.83;2.20;;;8.10;99.90;;;;;;5127989;27;20664;-72
2022/11/12 03:21:00;;;;;;;4.90;2.57;;;8.10;99.90;;;;;;5130339;27;20303;-72
2022/11/12 03:23:27;;;;;;;3.23;1.90;;;8.10;99.90;;;;;;5130708;27;20198;-71
2022/11/12 03:25:54;;;;;;;2.23;2.03;;;8.10;99.90;;;;;;5129424;27;20209;-71
2022/11/12 03:28:22;;;;;;;2.37;2.13;;;8.10;99.90;;;;;;5110424;28;20296;-71
2022/11/12 03:30:49;;;;;;;2.60;2.10;;;8.20;99.90;;;;;;5109829;28;20259;-71
2022/11/12 03:33:16;;;;;;;2.40;2.20;;;8.20;99.90;;;;;;5110059;28;20685;-71
2022/11/12 03:35:43;;;;;;;1.93;1.83;;;8.20;99.90;;;;;;5110315;28;20236;-73
2022/11/12 03:38:10;;;;;;;2.93;2.13;;;8.20;99.90;;;;;;5109887;28;20230;-73
2022/11/12 03:40:37;;;;;;;2.30;2.10;;;8.10;99.90;;;;;;5110530;28;20642;-73
2022/11/12 03:43:04;;;;;;;2.87;2.37;;;8.10;99.90;;;;;;5110267;28;20234;-74
2022/11/12 03:45:33;;;;;;;2.77;2.10;;;8.00;99.90;;;;;;5109699;27;20719;-73
2022/11/12 03:47:59;;;;;;;2.60;2.10;;;8.00;99.90;;;;;;5109436;28;20652;-73
2022/11/12 03:50:28;;;;;;;8.00;2.67;;;8.00;99.90;;;;;;5146543;27;21036;-73
2022/11/12 03:52:57;;;;;;;4.17;2.50;;;8.00;99.90;;;;;;5138273;27;20293;-73
2022/11/12 03:55:26;;;;;;;3.33;2.40;;;8.00;99.90;;;;;;5130298;27;20795;-73
2022/11/12 03:57:54;;;;;;;3.10;2.00;;;8.00;99.90;;;;;;5130239;27;20759;-73
2022/11/12 04:00:23;;;;;;;3.60;2.33;;;8.00;99.90;;;;;;5130118;27;20233;-74
2022/11/12 04:02:51;;;;;;;2.63;2.43;;;8.00;99.90;;;;;;5130173;27;20730;-70
2022/11/12 04:10:49;;;;;;;2.67;2.03;;;7.90;99.90;;;;;;5129762;27;20192;-70
2022/11/12 04:13:27;;;;;;;2.33;1.77;;;7.90;99.90;;;;;;5129882;27;20297;-71
2022/11/12 04:26:21;;;;;;;3.30;2.27;;;7.90;99.90;;;;;;5129938;27;20232;-72
2022/11/12 04:26:59;;;;;;;2.87;2.50;;;7.90;99.90;;;;;;5129540;27;20209;-71
2022/11/12 04:32:11;;;;;;;2.40;2.17;;;7.80;99.90;;;;;;5129569;27;20228;-71
2022/11/12 04:34:39;;;;;;;4.40;2.23;;;7.90;99.90;;;;;;5129155;27;20301;-70
2022/11/12 04:37:06;;;;;;;2.47;2.27;;;7.90;99.90;;;;;;5129722;27;20225;-70
2022/11/12 04:39:33;;;;;;;2.40;2.30;;;7.80;99.90;;;;;;5129479;27;20245;-70
2022/11/12 04:45:01;;;;;;;3.13;2.40;;;7.70;99.90;;;;;;5128792;27;20691;-70
2022/11/12 04:47:30;;;;;;;3.07;2.30;;;7.80;99.90;;;;;;5112824;27;20198;-70
2022/11/12 04:49:58;;;;;;;2.40;2.20;;;7.80;99.90;;;;;;5122224;27;20202;-71
2022/11/12 04:52:26;;;;;;;3.07;2.63;;;7.70;99.90;;;;;;5126717;27;20259;-70
2022/11/12 04:54:54;;;;;;;2.40;2.20;;;7.70;99.90;;;;;;5108828;28;20623;-70
2022/11/12 04:57:21;;;;;;;4.77;2.20;;;7.70;99.90;;;;;;5135692;27;20624;-71
2022/11/12 04:59:48;;;;;;;2.40;1.90;;;7.70;99.90;;;;;;5148861;27;20260;-71
2022/11/12 05:02:15;;;;;;;2.60;2.40;;;7.70;99.90;;;;;;5118733;27;20206;-71
2022/11/12 05:04:42;;;;;;;2.47;2.23;;;7.70;99.90;;;;;;5108765;28;20747;-71
2022/11/12 05:07:11;;;;;;;3.90;2.40;;;7.60;99.90;;;;;;5108306;28;20992;-70
2022/11/12 05:09:38;;;;;;;3.30;2.60;;;7.60;99.90;;;;;;5108346;28;20308;-70
2022/11/12 05:12:05;;;;;;;3.70;2.20;;;7.60;99.90;;;;;;5108439;28;20262;-71
2022/11/12 05:14:32;;;;;;;2.40;2.23;;;7.60;99.90;;;;;;5108255;28;20244;-71
2022/11/12 05:16:59;;;;;;;2.30;2.10;;;7.50;99.90;;;;;;5108253;28;20321;-71
2022/11/12 05:19:26;;;;;;;2.47;2.27;;;7.40;99.90;;;;;;5108204;27;20676;-71
2022/11/12 05:24:40;;;;;;;2.97;2.50;;;7.40;99.90;;;;;;5108298;28;20632;-71
2022/11/12 05:27:11;;;;;;;2.67;2.40;;;7.30;99.90;;;;;;5126896;27;20237;-71
2022/11/12 05:29:38;;;;;;;3.23;2.57;;;7.30;99.90;;;;;;5108181;28;20282;-71
2022/11/12 05:32:06;;;;;;;2.80;2.50;;;7.30;99.90;;;;;;5107602;28;20882;-71
2022/11/12 05:34:33;;;;;;;2.27;2.07;;;7.30;99.90;;;;;;5108272;28;20289;-71
2022/11/12 05:37:01;;;;;;;3.80;2.50;;;7.30;99.90;;;;;;5107995;28;20229;-71
2022/11/12 05:39:28;;;;;;;2.83;2.60;;;7.20;99.90;;;;;;5107788;28;20265;-71
2022/11/12 05:41:56;;;;;;;2.60;2.40;;;7.20;99.90;;;;;;5118518;27;20305;-72
2022/11/12 05:44:23;;;;;;;2.73;2.53;;;7.20;99.90;;;;;;5128673;27;20207;-71
2022/11/12 05:46:50;;;;;;;3.30;2.40;;;7.20;99.90;;;;;;5109175;27;20237;-70
2022/11/12 05:49:17;;;;;;;2.80;2.40;;;7.20;99.90;;;;;;5115764;27;20698;-70
2022/11/12 05:51:45;;;;;;;2.90;2.47;;;7.20;99.90;;;;;;5128290;27;20288;-70
2022/11/12 05:54:12;;;;;;;2.73;2.50;;;7.10;99.90;;;;;;5121168;27;20851;-70
2022/11/12 05:56:39;;;;;;;5.67;2.80;;;7.00;99.90;;;;;;5122942;27;20303;-71
2022/11/12 05:59:10;;;;;;;2.67;2.40;;;7.00;99.90;;;;;;5148740;27;20722;-71
2022/11/12 06:01:42;;;;;;;3.00;2.70;;;7.00;99.90;;;;;;5148350;27;20323;-70
2022/11/12 06:04:10;;;;;;;3.80;2.27;;;7.00;99.90;;;;;;5148547;27;20594;-71
2022/11/12 06:06:37;;;;;;;2.20;2.10;;;7.00;99.90;;;;;;5148606;27;20300;-71
2022/11/12 06:09:05;;;;;;;2.97;2.67;;;7.00;99.90;;;;;;5148677;27;20219;-71
2022/11/12 06:11:32;;;;;;;3.53;2.50;;;7.00;99.90;;;;;;5148756;27;20211;-70
2022/11/12 06:13:59;;;;;;;3.43;2.43;;;7.10;99.90;;;;;;5152520;27;20295;-70
2022/11/12 06:16:29;;;;;;;3.73;2.50;;;7.00;99.90;;;;;;5152820;27;20323;-71
2022/11/12 06:18:56;;;;;;;2.43;2.23;;;7.10;99.90;;;;;;5152766;27;20324;-71
2022/11/12 06:21:23;;;;;;;2.47;2.33;;;7.10;99.90;;;;;;5131596;27;20248;-70
2022/11/12 06:23:52;;;;;;;3.27;2.97;;;7.00;99.90;;;;;;5114917;27;20208;-71
2022/11/12 06:26:19;;;;;;;2.70;2.50;;;7.00;99.90;;;;;;5111366;28;20692;-71
2022/11/12 06:28:47;;;;;;;3.00;2.70;;;7.00;99.90;;;;;;5111612;28;20209;-72
2022/11/12 06:31:15;;;;;;;2.60;2.20;;;7.00;99.90;;;;;;5111276;28;20253;-72
2022/11/12 06:33:44;;;;;;;3.20;2.50;;;7.00;99.90;;;;;;5111612;28;20703;-72
2022/11/12 06:36:13;;;;;;;2.50;2.30;;;7.00;99.90;;;;;;5111245;28;20649;-72
2022/11/12 06:38:42;;;;;;;4.80;2.57;;;6.90;99.90;;;;;;5127207;27;20225;-72
2022/11/12 06:41:11;;;;;;;3.70;2.67;;;7.00;99.90;;;;;;5131366;27;20244;-72
2022/11/12 06:43:38;;;;;;;2.93;2.63;;;6.90;99.90;;;;;;5132076;27;20288;-72
2022/11/12 06:46:07;;;;;;;2.83;2.33;;;6.90;99.90;;;;;;5123731;27;20244;-72
2022/11/12 06:48:34;;;;;;;2.97;2.47;;;6.90;99.90;;;;;;5131785;27;20205;-72
2022/11/12 06:51:09;;;;;;;2.93;2.73;;;6.80;99.90;;;;;;5131710;27;20301;-72
2022/11/12 06:53:36;;;;;;;2.57;2.20;;;6.90;99.90;;;;;;5131566;27;20754;-72
2022/11/12 06:56:04;;;;;;;2.80;2.47;;;6.90;99.90;;;;;;5134327;27;20209;-72
2022/11/12 06:58:31;;;;;;;2.67;2.47;;;6.80;99.90;;;;;;5152286;27;20311;-72
2022/11/12 07:00:58;;;;;;;2.70;2.50;;;6.80;99.90;;;;;;5151455;27;20339;-71
2022/11/12 07:03:25;;;;;;;4.33;3.13;;;6.80;99.90;;;;;;5152198;27;20845;-71
2022/11/12 07:05:51;;;;;;;3.00;2.67;;;6.80;99.90;;;;;;5151398;27;20746;-71
2022/11/12 07:08:20;;;;;;;3.77;3.13;;;6.80;99.90;;;;;;5152041;27;20746;-71
2022/11/12 07:10:46;;;;;;;5.40;2.57;;;6.90;99.90;;;;;;5152191;27;20284;-71
2022/11/12 07:13:14;;;;;;;4.90;2.93;;;6.90;99.90;;;;;;5129035;27;20644;-71
2022/11/12 07:15:41;;;;;;;7.80;3.60;;;6.90;99.90;;;;;;5108487;27;20194;-71
2022/11/12 07:18:08;;;;;;;4.40;3.40;;;6.90;99.90;;;;;;5108423;27;20305;-71
2022/11/12 07:20:35;;;;;;;4.90;3.30;;;7.00;99.90;;;;;;5108722;28;20300;-71
2022/11/12 07:23:02;;;;;;;3.93;3.27;;;7.10;99.90;;;;;;5117730;27;20284;-70
2022/11/12 07:25:30;;;;;;;3.40;3.10;;;7.20;99.90;;;;;;5128856;27;20292;-70
2022/11/12 07:27:57;;;;;;;3.60;3.30;;;7.40;99.90;;;;;;5109896;27;20241;-70
2022/11/12 07:30:24;;;;;;;4.00;3.37;;;7.50;99.90;;;;;;5107585;28;20216;-71
2022/11/12 07:32:51;;;;;;;5.07;3.30;;;7.70;99.90;;;;;;5107877;28;20989;-71
2022/11/12 07:35:17;;;;;;;4.10;3.80;;;7.80;99.90;;;;;;5127119;27;20361;-71
2022/11/12 07:37:44;;;;;;;7.03;4.07;;;7.90;99.90;;;;;;5127429;27;20332;-71
2022/11/12 07:40:12;;;;;;;5.33;3.33;;;7.90;99.90;;;;;;5108623;27;20352;-71
2022/11/12 07:42:40;;;;;;;7.77;4.47;;;7.90;99.90;;;;;;5123726;27;20286;-71
2022/11/12 07:45:08;;;;;;;6.97;3.97;;;8.00;99.90;;;;;;5128182;27;20205;-71
2022/11/12 07:47:35;;;;;;;5.67;4.33;;;8.10;99.90;;;;;;5128652;27;20284;-71
2022/11/12 07:50:02;;;;;;;5.53;4.27;;;8.20;99.90;;;;;;5128075;27;20351;-71
2022/11/12 07:52:28;;;;;;;6.57;4.40;;;8.30;99.90;;;;;;5128797;27;20225;-71
2022/11/12 07:54:55;;;;;;;6.77;3.27;;;8.40;99.90;;;;;;5125432;27;20288;-71
2022/11/12 07:57:22;;;;;;;4.47;3.20;;;8.40;99.90;;;;;;5137135;27;20293;-71
2022/11/12 07:59:50;;;;;;;3.30;2.60;;;8.50;99.90;;;;;;5145739;27;20343;-71
2022/11/12 08:02:17;;;;;;;2.80;2.60;;;8.60;99.90;;;;;;5143171;27;20241;-71
2022/11/12 08:04:44;;;;;;;2.90;2.70;;;8.70;99.90;;;;;;5128050;27;20777;-71
2022/11/12 08:07:11;;;;;;;3.33;2.80;;;8.70;99.90;;;;;;5136702;27;20664;-71
2022/11/12 08:09:38;;;;;;;2.90;2.30;;;8.80;99.90;;;;;;5148413;27;20580;-71
2022/11/12 08:12:05;;;;;;;2.93;2.67;;;8.80;99.90;;;;;;5148590;27;20261;-71
2022/11/12 08:14:32;;;;;;;4.00;2.70;;;8.90;99.90;;;;;;5148615;27;20287;-72
2022/11/12 08:17:00;;;;;;;2.87;2.67;;;9.00;99.90;;;;;;5148335;27;20287;-71
2022/11/12 08:19:27;;;;;;;3.03;2.73;;;9.10;99.90;;;;;;5140323;27;20225;-72
2022/11/12 08:21:54;;;;;;;2.80;2.60;;;9.10;99.90;;;;;;5128170;27;20212;-71
2022/11/12 08:24:21;;;;;;;3.43;2.73;;;9.20;99.90;;;;;;5110876;27;20745;-71
2022/11/12 08:26:48;;;;;;;2.67;2.47;;;9.30;99.90;;;;;;5115631;27;20290;-72
2022/11/12 08:29:15;;;;;;;3.00;2.70;;;9.40;99.90;;;;;;5128379;27;20308;-72
2022/11/12 08:31:42;;;;;;;2.70;2.37;;;9.50;99.90;;;;;;5144726;27;20326;-72
2022/11/12 08:34:13;;;;;;;2.70;2.50;;;9.60;99.90;;;;;;5113185;27;20212;-71
2022/11/12 08:36:40;;;;;;;3.57;2.50;;;9.60;99.90;;;;;;5127025;27;20286;-72
2022/11/12 08:39:07;;;;;;;2.83;2.63;;;9.70;99.90;;;;;;5127357;27;20346;-71
2022/11/12 08:41:34;;;;;;;3.10;2.90;;;9.70;99.90;;;;;;5133387;27;20707;-71
2022/11/12 08:44:01;;;;;;;2.70;2.50;;;9.80;99.90;;;;;;5148348;27;20637;-71
2022/11/12 08:46:28;;;;;;;3.37;3.07;;;9.90;99.90;;;;;;5148092;27;20308;-71
2022/11/12 08:48:55;;;;;;;4.67;4.00;;;10.10;99.90;;;;;;5141705;27;20611;-72
2022/11/12 08:51:23;;;;;;;6.07;5.43;;;10.20;99.90;;;;;;5126940;27;20740;-71
2022/11/12 08:53:50;;;;;;;3.50;3.23;;;10.20;99.90;;;;;;5127567;27;20320;-72
2022/11/12 08:56:17;;;;;;;3.80;3.00;;;10.30;99.90;;;;;;5131345;27;20244;-71
2022/11/12 08:58:44;;;;;;;3.40;3.10;;;10.30;99.90;;;;;;5139573;27;20225;-72
2022/11/12 09:01:11;;;;;;;3.07;2.87;;;10.40;99.90;;;;;;5105209;28;20314;-72
2022/11/12 09:03:38;;;;;;;4.37;3.17;;;10.40;99.90;;;;;;5106628;28;20245;-71
2022/11/12 09:06:06;;;;;;;3.67;3.37;;;10.40;99.90;;;;;;5105718;28;20206;-71
2022/11/12 09:08:36;;;;;;;5.70;4.27;;;10.50;99.90;;;;;;5106216;28;20309;-71
2022/11/12 09:11:03;;;;;;;3.83;3.50;;;10.50;99.90;;;;;;5105998;28;20299;-72
2022/11/12 09:13:30;;;;;;;3.77;3.30;;;10.60;99.90;;;;;;5106522;28;20244;-71
2022/11/12 09:16:02;;;;;;;3.73;3.43;;;10.70;99.90;;;;;;5105794;28;20637;-71
2022/11/12 09:18:29;;;;;;;3.40;3.10;;;10.80;99.90;;;;;;5105712;28;20190;-71
2022/11/12 09:21:01;;;;;;;3.10;2.90;;;10.80;99.90;;;;;;5108851;27;20218;-72
2022/11/12 09:23:28;;;;;;;3.40;3.10;;;10.90;99.90;;;;;;5112869;27;20196;-71
2022/11/12 09:25:57;;;;;;;5.70;3.20;;;11.00;99.90;;;;;;5107920;27;20234;-72
2022/11/12 09:28:24;;;;;;;3.70;3.23;;;11.10;99.90;;;;;;5108619;27;20202;-72
2022/11/12 09:30:53;;;;;;;4.63;3.40;;;11.20;99.90;;;;;;5115924;27;20663;-71
2022/11/12 09:33:22;;;;;;;4.50;4.10;;;11.30;99.90;;;;;;5126598;27;20316;-71
2022/11/12 09:35:49;;;;;;;5.30;3.30;;;11.40;99.90;;;;;;5126306;27;20205;-71
2022/11/12 09:38:17;;;;;;;7.17;4.57;;;11.60;99.90;;;;;;5126494;27;20299;-71
2022/11/12 09:41:26;;;;;;;6.27;3.80;;;11.70;99.90;;;;;;5126440;27;20319;-72
2022/11/12 09:43:55;;;;;;;5.77;4.40;;;11.80;99.90;;;;;;5125478;27;20229;-71
2022/11/12 09:46:34;;;;;;;4.73;4.33;;;11.90;99.90;;;;;;5116293;27;20208;-72
2022/11/12 09:49:07;;;;;;;4.70;4.30;;;12.00;99.90;;;;;;5105605;28;20926;-72
2022/11/12 09:51:36;;;;;;;7.40;5.10;;;12.10;99.90;;;;;;5105403;28;20811;-72
2022/11/12 09:54:13;;;;;;;5.97;5.30;;;12.10;99.90;;;;;;5109987;27;20308;-71
2022/11/12 09:56:41;;;;;;;8.70;6.13;;;12.20;99.90;;;;;;5131468;27;20206;-71
2022/11/12 09:59:12;;;;;;;9.73;6.23;;;12.30;99.90;;;;;;5146445;27;20600;-71
2022/11/12 10:01:49;;;;;;;10.07;6.83;;;12.20;99.90;;;;;;5146291;27;20256;-71
2022/11/12 10:04:33;;;;;;;8.40;6.20;;;12.20;99.90;;;;;;5130213;27;20297;-72
2022/11/12 10:07:06;;;;;;;7.07;5.73;;;12.30;99.90;;;;;;5126411;27;20221;-71
2022/11/12 10:09:40;;;;;;;10.70;7.70;;;12.30;99.90;;;;;;5125769;27;20193;-72
2022/11/12 10:12:32;;;;;;;15.87;10.43;;;12.30;99.90;;;;;;5126048;27;20232;-72
2022/11/12 10:18:13;;;;;;;15.70;10.27;;;12.30;99.90;;;;;;5084954;27;20428;-72
2022/11/12 10:20:48;;;;;;;16.00;11.40;;;12.30;99.90;;;;;;5125747;27;20225;-72
2022/11/12 10:23:19;;;;;;;16.37;11.00;;;12.30;99.90;;;;;;5135835;27;20231;-71
2022/11/12 10:25:48;;;;;;;15.57;10.80;;;12.20;99.90;;;;;;5146598;27;20291;-71
2022/11/12 10:28:26;;;;;;;15.13;12.10;;;12.20;99.90;;;;;;5125433;28;20638;-71
2022/11/12 10:30:59;;;;;;;17.80;11.97;;;12.30;99.90;;;;;;5125434;27;21013;-71
2022/11/12 10:33:30;;;;;;;14.87;11.03;;;12.30;99.90;;;;;;5125320;27;20289;-71
2022/11/12 10:36:05;;;;;;;13.67;10.90;;;12.30;99.90;;;;;;5125825;27;20706;-72
2022/11/12 10:38:34;;;;;;;14.93;11.07;;;12.30;99.90;;;;;;5124470;28;20224;-72
2022/11/12 10:41:19;;;;;;;12.40;10.93;;;12.30;99.90;;;;;;5111214;27;20247;-72
2022/11/12 10:43:54;;;;;;;14.63;11.07;;;12.40;99.90;;;;;;5106880;28;20201;-71
2022/11/12 10:46:23;;;;;;;23.80;13.17;;;12.40;99.90;;;;;;5107097;28;20288;-71
2022/11/12 10:48:56;;;;;;;17.23;12.83;;;12.50;99.90;;;;;;5107242;28;20297;-71
2022/11/12 10:51:29;;;;;;;16.77;12.40;;;12.50;99.90;;;;;;5109913;27;20284;-71
2022/11/12 10:53:56;;;;;;;16.70;11.73;;;12.60;99.90;;;;;;5109374;27;20710;-72
2022/11/12 10:56:27;;;;;;;18.67;12.33;;;12.70;99.90;;;;;;5126309;27;20306;-71
2022/11/12 10:59:22;;;;;;;19.40;12.33;;;12.90;99.90;;;;;;5122196;27;20285;-71
2022/11/12 11:01:56;;;;;;;15.70;11.67;;;12.90;99.90;;;;;;5094329;27;20205;-71
2022/11/12 11:04:30;;;;;;;20.67;13.73;;;13.00;99.90;;;;;;5115325;27;20288;-71
2022/11/12 11:07:04;;;;;;;16.57;12.37;;;13.10;99.90;;;;;;5131454;27;20240;-71
2022/11/12 11:09:31;;;;;;;20.87;13.57;;;13.20;99.90;;;;;;5128287;27;20198;-71
2022/11/12 11:11:59;;;;;;;16.40;13.57;;;13.30;99.90;;;;;;5145456;27;20207;-72
2022/11/12 11:14:32;;;;;;;15.13;12.17;;;13.40;99.90;;;;;;5131122;27;20197;-71
2022/11/12 11:17:03;;;;;;;19.13;12.57;;;13.60;99.90;;;;;;5121037;27;20198;-70
2022/11/12 11:19:35;;;;;;;14.47;12.43;;;13.60;99.90;;;;;;5125891;27;20214;-71
2022/11/12 11:22:27;;;;;;;16.40;13.13;;;13.50;99.90;;;;;;5128793;27;20286;-71
2022/11/12 11:25:17;;;;;;;18.27;13.23;;;13.50;99.90;;;;;;5118838;27;20280;-71
2022/11/12 11:27:56;;;;;;;20.60;13.53;;;13.40;99.90;;;;;;5129882;27;20285;-71
2022/11/12 11:30:24;;;;;;;17.03;13.13;;;13.40;99.90;;;;;;5123736;27;20959;-71
2022/11/12 11:33:09;;;;;;;20.90;13.47;;;13.40;99.90;;;;;;5110268;28;20330;-71
2022/11/12 11:35:52;;;;;;;18.60;12.30;;;13.30;99.90;;;;;;5110409;28;20283;-71
2022/11/12 11:38:33;;;;;;;18.53;12.37;;;13.30;99.90;;;;;;5110438;28;20281;-72
2022/11/12 11:41:20;;;;;;;14.27;11.93;;;13.20;99.90;;;;;;5110076;27;20289;-72
2022/11/12 11:43:58;;;;;;;14.30;11.13;;;13.30;99.90;;;;;;5106863;28;20710;-72
2022/11/12 11:46:47;;;;;;;15.47;11.20;;;13.30;99.90;;;;;;5108592;27;20660;-72
2022/11/12 11:49:33;;;;;;;13.23;9.90;;;13.30;99.90;;;;;;5109119;28;20287;-72
2022/11/12 11:52:08;;;;;;;14.53;11.07;;;13.30;99.90;;;;;;5108628;28;20297;-72
2022/11/12 11:55:02;;;;;;;12.73;10.43;;;13.30;99.90;;;;;;5109057;27;20632;-71
2022/11/12 11:57:33;;;;;;;13.73;10.57;;;13.40;99.90;;;;;;5108896;28;20198;-72
2022/11/12 12:00:12;;;;;;;11.80;9.20;;;13.50;99.90;;;;;;5108873;28;20361;-72
2022/11/12 12:03:16;;;;;;;11.17;9.87;;;13.70;99.90;;;;;;5109918;28;20281;-72
2022/11/12 12:05:47;;;;;;;14.53;10.13;;;13.90;99.90;;;;;;5107548;27;20210;-72
2022/11/12 12:08:21;;;;;;;15.13;10.10;;;14.20;99.90;;;;;;5109959;28;20198;-72
2022/11/12 12:10:57;;;;;;;12.80;8.83;;;14.40;99.90;;;;;;5109545;28;20295;-72
2022/11/12 12:13:36;;;;;;;11.83;9.00;;;14.60;99.90;;;;;;5109471;28;20232;-72
2022/11/12 12:16:22;;;;;;;12.43;9.27;;;14.80;99.90;;;;;;5110279;27;20289;-72
2022/11/12 12:18:56;;;;;;;12.27;9.70;;;14.90;99.90;;;;;;5112967;27;20285;-72
2022/11/12 12:21:24;;;;;;;10.90;8.67;;;15.00;99.90;;;;;;5126345;27;20342;-72
2022/11/12 12:23:56;;;;;;;11.53;8.07;;;15.10;99.90;;;;;;5129381;27;20205;-71
2022/11/12 12:26:27;;;;;;;9.70;7.40;;;15.20;99.90;;;;;;5134916;27;20312;-72
2022/11/12 12:28:57;;;;;;;13.23;9.23;;;15.40;99.90;;;;;;5150754;27;20288;-72
2022/11/12 12:31:31;;;;;;;9.80;8.17;;;15.50;99.90;;;;;;5134351;27;20225;-72
2022/11/12 12:34:05;;;;;;;10.77;8.10;;;15.50;99.90;;;;;;5129670;27;20297;-71
2022/11/12 12:36:36;;;;;;;11.67;8.57;;;15.60;99.90;;;;;;5129930;27;20233;-72
2022/11/12 12:39:11;;;;;;;10.67;7.93;;;15.60;99.90;;;;;;5129616;27;20217;-72
2022/11/12 12:41:45;;;;;;;9.40;7.97;;;15.50;99.90;;;;;;5129641;27;20321;-72
2022/11/12 12:44:12;;;;;;;10.70;8.10;;;15.50;99.90;;;;;;5129548;27;20273;-72
2022/11/12 12:46:42;;;;;;;9.33;7.80;;;15.50;99.90;;;;;;5129308;27;20293;-72
2022/11/12 12:49:16;;;;;;;11.30;7.23;;;15.50;99.90;;;;;;5129175;27;20736;-72
2022/11/12 12:51:43;;;;;;;7.97;7.03;;;15.50;99.90;;;;;;5129229;27;20284;-72
2022/11/12 12:54:50;;;;;;;10.70;7.13;;;15.50;99.90;;;;;;5129325;27;20232;-72
2022/11/12 12:57:29;;;;;;;11.87;7.23;;;15.60;99.90;;;;;;5129365;27;20296;-71
2022/11/12 13:00:28;;;;;;;9.50;6.70;;;15.60;99.90;;;;;;5126788;27;20783;-71
2022/11/12 13:02:55;;;;;;;7.43;5.90;;;15.60;99.90;;;;;;5127336;27;20194;-71
2022/11/12 13:05:27;;;;;;;8.27;6.83;;;15.50;99.90;;;;;;5127276;27;20717;-71
2022/11/12 13:07:59;;;;;;;7.37;6.60;;;15.40;99.90;;;;;;5126671;27;20656;-72
2022/11/12 13:10:54;;;;;;;9.27;7.27;;;15.20;99.90;;;;;;5127131;27;20213;-71
2022/11/12 13:13:30;;;;;;;9.00;6.43;;;15.00;99.90;;;;;;5106222;28;20656;-71
2022/11/12 13:16:00;;;;;;;8.03;6.47;;;14.90;99.90;;;;;;5106092;28;20296;-72
2022/11/12 13:19:09;;;;;;;9.80;6.43;;;14.80;99.90;;;;;;5106725;28;20244;-72
2022/11/12 13:21:37;;;;;;;6.80;5.63;;;14.70;99.90;;;;;;5125858;27;20308;-71
2022/11/12 13:24:10;;;;;;;7.60;5.90;;;14.60;99.90;;;;;;5107651;27;20619;-72
2022/11/12 13:26:47;;;;;;;9.63;6.30;;;14.60;99.90;;;;;;5112900;27;20208;-72
2022/11/12 13:29:38;;;;;;;10.20;7.00;;;14.50;99.90;;;;;;5126870;27;20300;-71
2022/11/12 13:32:30;;;;;;;7.80;6.43;;;14.40;99.90;;;;;;5126276;27;20218;-71